Time;durP1;ratioP1;P1;durP2;ratioP2;P2;SDS_P1;SDS_P2;PMS_P1;PMS_P2;Temp;Humidity;BMP_temperature;BMP_pressure;BME280_temperature;BME280_humidity;BME280_pressure;Samples;Min_cycle;Max_cycle;Signal;HPM_P1;HPM_P2
2023/09/08 00:02:42;;;;;;;6.77;6.27;;;20.60;32.00;;;;;;10422474;28;20221;-73
2023/09/08 00:07:45;;;;;;;5.80;5.30;;;20.50;31.70;;;;;;10428307;28;20227;-73
2023/09/08 00:12:50;;;;;;;7.17;5.10;;;20.40;31.80;;;;;;10432825;28;20279;-73
2023/09/08 00:17:53;;;;;;;5.03;4.63;;;20.30;32.30;;;;;;10429103;28;20229;-73
2023/09/08 00:22:56;;;;;;;5.63;5.17;;;20.20;31.80;;;;;;10436128;28;20228;-73
2023/09/08 00:28:01;;;;;;;6.20;5.67;;;20.20;31.90;;;;;;10429568;28;20591;-73
2023/09/08 00:33:08;;;;;;;5.77;5.27;;;20.20;32.30;;;;;;10415470;28;20235;-73
2023/09/08 00:38:11;;;;;;;5.00;4.60;;;20.10;32.00;;;;;;10433555;28;20702;-73
2023/09/08 00:43:17;;;;;;;5.40;5.00;;;20.10;31.90;;;;;;10432869;28;20225;-73
2023/09/08 00:48:21;;;;;;;6.07;5.17;;;20.00;32.20;;;;;;10424254;28;20233;-73
2023/09/08 00:53:24;;;;;;;5.07;4.57;;;19.90;32.10;;;;;;10431433;28;20236;-73
2023/09/08 00:58:30;;;;;;;4.93;4.53;;;19.90;32.20;;;;;;10430696;28;20237;-73
2023/09/08 01:03:33;;;;;;;6.07;5.57;;;19.90;32.50;;;;;;10421900;28;20227;-73
2023/09/08 01:08:37;;;;;;;6.53;5.93;;;19.80;32.00;;;;;;10429428;28;20222;-73
2023/09/08 01:13:41;;;;;;;6.80;6.20;;;19.70;32.40;;;;;;10431592;28;20229;-73
2023/09/08 01:18:48;;;;;;;5.70;5.20;;;19.50;32.70;;;;;;10422519;28;20231;-73
2023/09/08 01:24:11;;;;;;;5.80;5.23;;;19.30;32.70;;;;;;10429883;28;20718;-73
2023/09/08 01:29:17;;;;;;;5.20;4.80;;;19.20;33.80;;;;;;10417540;28;20226;-73
2023/09/08 01:34:21;;;;;;;5.83;5.27;;;19.10;33.60;;;;;;10430072;28;20229;-73
2023/09/08 01:39:24;;;;;;;5.57;5.10;;;19.10;33.00;;;;;;10422830;28;20248;-73
2023/09/08 01:44:28;;;;;;;4.60;4.30;;;19.10;33.00;;;;;;10429478;28;20235;-73
2023/09/08 01:49:31;;;;;;;4.90;4.50;;;19.10;33.20;;;;;;10421397;28;20236;-72
2023/09/08 01:54:35;;;;;;;4.80;4.40;;;19.10;33.00;;;;;;10408995;28;20225;-73
2023/09/08 01:59:40;;;;;;;5.00;4.50;;;19.10;33.00;;;;;;10416695;28;20233;-73
2023/09/08 02:04:44;;;;;;;5.90;5.10;;;19.10;33.20;;;;;;10421101;28;20287;-73
2023/09/08 02:09:47;;;;;;;5.57;5.07;;;19.10;33.20;;;;;;10418228;28;20225;-73
2023/09/08 02:14:52;;;;;;;5.73;5.23;;;19.10;33.00;;;;;;10422601;28;20751;-73
2023/09/08 02:19:56;;;;;;;6.10;5.57;;;19.00;33.30;;;;;;10408968;28;20225;-73
2023/09/08 02:24:59;;;;;;;5.93;5.43;;;19.00;33.10;;;;;;10426691;28;20225;-73
2023/09/08 02:30:04;;;;;;;5.40;4.90;;;19.00;33.10;;;;;;10406059;28;20229;-72
2023/09/08 02:35:09;;;;;;;6.20;5.47;;;18.90;33.40;;;;;;10412872;28;20232;-73
2023/09/08 02:40:13;;;;;;;5.33;4.93;;;18.80;33.30;;;;;;10417400;28;20306;-72
2023/09/08 02:45:17;;;;;;;6.47;5.73;;;18.80;33.10;;;;;;10418258;28;20229;-73
2023/09/08 02:50:21;;;;;;;6.03;5.50;;;18.80;33.60;;;;;;10410489;28;20233;-73
2023/09/08 02:55:24;;;;;;;5.13;4.70;;;18.70;33.30;;;;;;10427071;28;20304;-73
2023/09/08 03:00:29;;;;;;;5.97;5.20;;;18.70;33.30;;;;;;10409706;28;20256;-73
2023/09/08 03:05:33;;;;;;;4.67;4.33;;;18.60;33.70;;;;;;10422663;28;20710;-73
2023/09/08 03:10:36;;;;;;;4.70;4.30;;;18.60;33.50;;;;;;10420883;28;20747;-73
2023/09/08 03:15:40;;;;;;;5.60;5.10;;;18.50;33.30;;;;;;10432271;28;20735;-72
2023/09/08 03:20:43;;;;;;;5.07;4.67;;;18.50;33.80;;;;;;10419765;28;20255;-73
2023/09/08 03:25:46;;;;;;;5.40;5.00;;;18.50;33.60;;;;;;10434909;28;20225;-72
2023/09/08 03:30:51;;;;;;;5.80;5.23;;;18.40;33.50;;;;;;10432688;28;20286;-72
2023/09/08 03:35:55;;;;;;;5.47;5.07;;;18.40;33.90;;;;;;10433951;28;20222;-73
2023/09/08 03:40:58;;;;;;;7.10;5.27;;;18.30;33.70;;;;;;10429979;28;20233;-73
2023/09/08 03:46:02;;;;;;;5.17;4.77;;;18.20;33.80;;;;;;10426994;28;20282;-73
2023/09/08 03:51:06;;;;;;;6.60;5.50;;;18.10;34.40;;;;;;10444082;28;20235;-72
2023/09/08 03:56:09;;;;;;;6.00;5.50;;;17.90;34.30;;;;;;10423952;28;20610;-73
2023/09/08 04:01:13;;;;;;;5.73;5.23;;;17.90;34.40;;;;;;10444932;28;20306;-72
2023/09/08 04:06:17;;;;;;;4.77;4.43;;;17.90;34.70;;;;;;10429696;28;20333;-72
2023/09/08 04:11:20;;;;;;;5.40;4.90;;;17.90;34.10;;;;;;10433738;28;20291;-72
2023/09/08 04:16:27;;;;;;;6.27;5.50;;;17.90;34.20;;;;;;10434504;28;20229;-73
2023/09/08 04:21:30;;;;;;;5.43;4.93;;;17.80;34.60;;;;;;10422333;28;20248;-72
2023/09/08 04:26:33;;;;;;;5.30;4.90;;;17.80;34.60;;;;;;10424864;28;20239;-72
2023/09/08 04:31:37;;;;;;;5.30;4.80;;;17.70;34.50;;;;;;10441046;28;20225;-72
2023/09/08 04:36:41;;;;;;;5.73;5.23;;;17.70;34.50;;;;;;10415118;28;20245;-72
2023/09/08 04:41:44;;;;;;;6.83;5.17;;;17.70;34.50;;;;;;10416127;28;20604;-72
2023/09/08 04:46:49;;;;;;;5.37;4.87;;;17.60;34.40;;;;;;10420173;28;20225;-72
2023/09/08 04:51:52;;;;;;;5.57;4.90;;;17.70;34.50;;;;;;10430062;28;20296;-73
2023/09/08 04:56:55;;;;;;;5.47;4.97;;;17.60;34.40;;;;;;10416972;28;20225;-73
2023/09/08 05:02:19;;;;;;;5.30;4.87;;;17.60;34.40;;;;;;10415954;28;20222;-73
2023/09/08 05:07:23;;;;;;;5.93;5.33;;;17.50;34.30;;;;;;10416118;28;20230;-72
2023/09/08 05:12:26;;;;;;;5.73;5.30;;;17.50;34.30;;;;;;10428790;28;20609;-72
2023/09/08 05:17:30;;;;;;;5.63;5.10;;;17.40;34.20;;;;;;10423913;28;20709;-72
2023/09/08 05:22:34;;;;;;;5.03;4.63;;;17.30;34.50;;;;;;10431785;28;20274;-72
2023/09/08 05:27:37;;;;;;;5.40;5.00;;;17.20;34.40;;;;;;10426218;28;20233;-72
2023/09/08 05:32:41;;;;;;;7.33;5.60;;;17.20;35.00;;;;;;10431506;28;20225;-72
2023/09/08 05:37:45;;;;;;;5.60;5.10;;;17.20;35.50;;;;;;10434099;28;20217;-73
2023/09/08 05:42:48;;;;;;;5.37;4.93;;;17.20;35.10;;;;;;10421476;28;20294;-72
2023/09/08 05:47:53;;;;;;;6.93;6.23;;;17.20;35.20;;;;;;10428262;28;20714;-73
2023/09/08 05:52:56;;;;;;;8.03;5.23;;;17.20;36.10;;;;;;10415796;28;20237;-72
2023/09/08 05:57:59;;;;;;;5.97;4.93;;;17.30;35.80;;;;;;10424671;28;20299;-72
2023/09/08 06:03:05;;;;;;;6.40;5.80;;;17.30;36.10;;;;;;10413109;28;20221;-72
2023/09/08 06:08:08;;;;;;;6.47;5.87;;;17.40;37.20;;;;;;10409332;28;20907;-70
2023/09/08 06:13:11;;;;;;;6.63;6.03;;;17.50;36.70;;;;;;10416959;28;20239;-71
2023/09/08 06:18:16;;;;;;;7.30;6.70;;;17.60;36.80;;;;;;10408028;28;20311;-70
2023/09/08 06:23:21;;;;;;;7.67;6.97;;;17.60;37.20;;;;;;10411991;28;20323;-70
2023/09/08 06:28:25;;;;;;;6.87;6.27;;;17.70;37.60;;;;;;10410460;28;20232;-70
2023/09/08 06:33:29;;;;;;;7.70;7.07;;;17.80;37.20;;;;;;10418453;28;20233;-70
2023/09/08 06:38:33;;;;;;;7.83;7.03;;;17.90;38.10;;;;;;10419652;28;20718;-69
2023/09/08 06:43:36;;;;;;;7.40;6.70;;;18.00;37.70;;;;;;10421825;28;20237;-70
2023/09/08 06:48:41;;;;;;;7.90;7.23;;;18.10;37.90;;;;;;10409474;28;20252;-70
2023/09/08 06:53:44;;;;;;;8.23;7.43;;;18.20;38.60;;;;;;10428250;28;20257;-70
2023/09/08 06:58:48;;;;;;;8.03;7.43;;;18.30;38.10;;;;;;10429105;28;20231;-70
2023/09/08 07:03:52;;;;;;;8.73;7.97;;;18.40;38.30;;;;;;10414168;28;20229;-70
2023/09/08 07:08:56;;;;;;;8.13;7.43;;;18.40;39.10;;;;;;10422711;28;20314;-70
2023/09/08 07:13:59;;;;;;;9.03;8.10;;;18.60;38.80;;;;;;10418308;28;20269;-70
2023/09/08 07:19:04;;;;;;;8.17;7.47;;;18.70;40.00;;;;;;10422304;28;20229;-71
2023/09/08 07:24:08;;;;;;;9.53;7.40;;;18.80;40.20;;;;;;10424332;28;20750;-71
2023/09/08 07:29:12;;;;;;;8.60;7.90;;;19.00;40.20;;;;;;10413278;28;20463;-69
2023/09/08 07:34:16;;;;;;;8.53;7.77;;;19.10;40.10;;;;;;10427514;28;20628;-70
2023/09/08 07:39:19;;;;;;;7.47;6.87;;;19.30;41.20;;;;;;10418678;28;20233;-70
2023/09/08 07:44:22;;;;;;;6.10;5.60;;;19.50;40.50;;;;;;10415047;28;20229;-69
2023/09/08 07:49:27;;;;;;;5.47;5.00;;;19.70;40.20;;;;;;10419989;28;20237;-71
2023/09/08 07:54:30;;;;;;;5.20;4.70;;;20.00;40.50;;;;;;10421506;28;20760;-71
2023/09/08 07:59:34;;;;;;;5.63;5.17;;;20.30;40.20;;;;;;10429720;28;20606;-72
2023/09/08 08:04:41;;;;;;;5.47;5.03;;;20.60;40.00;;;;;;10433571;28;20229;-70
2023/09/08 08:09:44;;;;;;;6.00;5.40;;;21.00;40.10;;;;;;10424107;28;20237;-70
2023/09/08 08:14:48;;;;;;;5.50;5.00;;;21.40;39.80;;;;;;10413687;28;20320;-70
2023/09/08 08:19:53;;;;;;;5.70;5.20;;;21.80;39.50;;;;;;10455901;28;20222;-70
2023/09/08 08:24:56;;;;;;;8.37;5.13;;;22.10;38.70;;;;;;10437537;28;20315;-70
2023/09/08 08:30:00;;;;;;;6.30;5.80;;;22.40;38.60;;;;;;10429575;28;20220;-69
2023/09/08 08:35:07;;;;;;;5.63;5.13;;;22.70;38.90;;;;;;10455234;28;20703;-70
2023/09/08 08:40:12;;;;;;;5.73;5.33;;;23.00;39.10;;;;;;10435219;28;20224;-69
2023/09/08 08:45:19;;;;;;;6.53;5.97;;;23.30;38.30;;;;;;10443884;28;20602;-70
2023/09/08 08:50:25;;;;;;;5.87;5.37;;;23.60;38.00;;;;;;10428551;28;20225;-68
2023/09/08 08:55:31;;;;;;;6.00;5.50;;;23.90;37.50;;;;;;10447882;28;20268;-69
2023/09/08 09:00:36;;;;;;;6.40;5.83;;;24.20;37.50;;;;;;10417071;28;20713;-69
2023/09/08 09:05:42;;;;;;;6.70;6.10;;;24.40;37.00;;;;;;10444883;28;20315;-70
2023/09/08 09:10:51;;;;;;;6.63;6.03;;;24.60;36.50;;;;;;10427944;28;20238;-69
2023/09/08 09:16:01;;;;;;;6.40;5.90;;;24.90;36.50;;;;;;10479621;28;20228;-70
2023/09/08 09:21:05;;;;;;;5.40;5.00;;;25.00;36.00;;;;;;10469463;28;20225;-70
2023/09/08 09:26:08;;;;;;;6.30;5.70;;;25.30;36.10;;;;;;10446007;28;20221;-70
2023/09/08 09:31:12;;;;;;;6.60;6.10;;;25.50;36.00;;;;;;10427770;28;20832;-70
2023/09/08 09:36:22;;;;;;;6.67;6.17;;;25.70;35.80;;;;;;10464016;28;20704;-70
2023/09/08 09:41:25;;;;;;;8.63;6.20;;;25.90;34.90;;;;;;10435130;28;20225;-69
2023/09/08 09:46:30;;;;;;;6.77;5.43;;;26.10;35.40;;;;;;10453077;28;20308;-69
2023/09/08 09:51:41;;;;;;;7.03;6.53;;;26.30;35.20;;;;;;10444004;28;20236;-69
2023/09/08 09:56:46;;;;;;;6.53;6.03;;;26.50;34.20;;;;;;10426164;28;20251;-69
2023/09/08 10:01:54;;;;;;;5.70;5.30;;;26.70;34.60;;;;;;10415364;28;20229;-69
2023/09/08 10:06:59;;;;;;;6.20;5.70;;;26.90;34.50;;;;;;10423302;28;20228;-68
2023/09/08 10:12:05;;;;;;;6.50;6.00;;;27.10;33.70;;;;;;10418320;28;20312;-68
2023/09/08 10:17:16;;;;;;;7.13;6.43;;;27.30;33.30;;;;;;10422182;28;20228;-68
2023/09/08 10:22:23;;;;;;;6.83;6.30;;;27.50;32.60;;;;;;10428687;28;20510;-68
2023/09/08 10:27:27;;;;;;;6.73;6.23;;;27.60;32.70;;;;;;10423278;28;20225;-68
2023/09/08 10:32:31;;;;;;;6.57;6.07;;;27.70;33.10;;;;;;10418277;28;20236;-69
2023/09/08 10:37:36;;;;;;;6.47;5.87;;;27.70;32.80;;;;;;10435543;28;20227;-68
2023/09/08 10:42:41;;;;;;;6.40;5.90;;;27.80;32.20;;;;;;10454372;28;20304;-69
2023/09/08 10:47:57;;;;;;;7.83;6.13;;;28.00;32.40;;;;;;10435800;28;20259;-68
2023/09/08 10:53:14;;;;;;;6.53;6.00;;;28.10;32.20;;;;;;10420974;28;20225;-68
2023/09/08 10:58:21;;;;;;;6.07;5.57;;;28.20;31.80;;;;;;10412881;28;20223;-68
2023/09/08 11:03:29;;;;;;;6.83;6.23;;;28.40;31.50;;;;;;10426402;28;20256;-69
2023/09/08 11:08:35;;;;;;;6.57;5.97;;;28.50;30.70;;;;;;10420668;28;20307;-68
2023/09/08 11:13:39;;;;;;;6.47;5.97;;;28.70;30.80;;;;;;10413701;28;20275;-68
2023/09/08 11:18:43;;;;;;;6.17;5.67;;;28.80;31.40;;;;;;10403962;28;20740;-67
2023/09/08 11:23:48;;;;;;;6.57;6.07;;;28.90;30.80;;;;;;10410347;28;20224;-68
2023/09/08 11:28:53;;;;;;;7.00;6.50;;;29.00;30.90;;;;;;10411070;28;20237;-69
2023/09/08 11:33:58;;;;;;;6.80;6.20;;;29.00;30.90;;;;;;10417219;28;20233;-69
2023/09/08 11:39:06;;;;;;;6.43;5.83;;;29.00;30.90;;;;;;10414701;28;20232;-69
2023/09/08 11:44:09;;;;;;;6.97;6.27;;;29.10;31.70;;;;;;10420263;28;20221;-69
2023/09/08 11:49:13;;;;;;;5.93;5.50;;;29.10;30.90;;;;;;10405142;28;20422;-68
2023/09/08 11:54:18;;;;;;;6.50;6.00;;;29.20;31.00;;;;;;10412530;28;20221;-68
2023/09/08 11:59:21;;;;;;;6.80;6.30;;;29.30;30.80;;;;;;10414154;28;20657;-69
2023/09/08 12:04:25;;;;;;;6.67;6.10;;;29.40;31.10;;;;;;10420697;28;20252;-69
2023/09/08 12:09:30;;;;;;;6.33;5.73;;;29.40;30.30;;;;;;10418167;28;20229;-69
2023/09/08 12:14:41;;;;;;;7.00;6.40;;;29.50;30.10;;;;;;10414947;28;20267;-69
2023/09/08 12:19:47;;;;;;;7.00;6.43;;;29.50;29.80;;;;;;10417443;28;20230;-69
2023/09/08 12:24:58;;;;;;;6.03;5.63;;;29.50;30.30;;;;;;10419336;28;20237;-70
2023/09/08 12:30:04;;;;;;;6.60;6.10;;;29.50;29.60;;;;;;10446030;28;20233;-70
2023/09/08 12:35:07;;;;;;;6.47;5.97;;;29.50;29.90;;;;;;10413927;28;20736;-70
2023/09/08 12:40:12;;;;;;;6.80;6.20;;;29.60;30.00;;;;;;10414992;28;20730;-69
2023/09/08 12:45:16;;;;;;;6.70;6.10;;;29.60;29.40;;;;;;10416477;28;20232;-69
2023/09/08 12:50:19;;;;;;;6.90;6.37;;;29.60;29.90;;;;;;10414049;28;20238;-69
2023/09/08 12:55:24;;;;;;;6.43;5.83;;;29.70;29.70;;;;;;10425173;28;20232;-69
2023/09/08 13:00:27;;;;;;;7.00;6.40;;;29.70;29.50;;;;;;10426015;28;20265;-69
2023/09/08 13:05:32;;;;;;;6.37;5.87;;;29.70;29.60;;;;;;10420661;28;20240;-69
2023/09/08 13:10:39;;;;;;;6.33;5.73;;;29.70;29.50;;;;;;10414975;28;20253;-68
2023/09/08 13:15:43;;;;;;;6.10;5.60;;;29.70;29.30;;;;;;10415541;28;20229;-68
2023/09/08 13:20:46;;;;;;;6.23;5.73;;;29.70;29.40;;;;;;10419803;28;20275;-68
2023/09/08 13:25:50;;;;;;;6.60;6.10;;;29.80;29.40;;;;;;10424071;28;20220;-69
2023/09/08 13:30:54;;;;;;;6.60;6.00;;;29.80;29.30;;;;;;10432494;28;20312;-67
2023/09/08 13:35:57;;;;;;;7.17;6.50;;;29.80;29.30;;;;;;10423094;28;20229;-69
2023/09/08 13:41:01;;;;;;;6.67;6.13;;;29.80;29.10;;;;;;10428981;28;20229;-68
2023/09/08 13:46:05;;;;;;;6.47;5.97;;;29.80;29.00;;;;;;10414379;28;20305;-68
2023/09/08 13:51:08;;;;;;;6.60;6.10;;;29.90;29.20;;;;;;10417356;28;20248;-68
2023/09/08 13:56:14;;;;;;;6.37;5.97;;;29.90;29.00;;;;;;10414157;28;20236;-68
2023/09/08 14:01:21;;;;;;;6.20;5.70;;;29.90;28.60;;;;;;10419800;28;20335;-68
2023/09/08 14:06:29;;;;;;;6.43;5.87;;;30.00;28.80;;;;;;10410702;28;20297;-67
2023/09/08 14:11:42;;;;;;;6.20;5.70;;;30.00;28.80;;;;;;10420529;28;20367;-69
2023/09/08 14:17:03;;;;;;;6.73;6.23;;;30.00;28.40;;;;;;10414898;28;20222;-69
2023/09/08 14:22:06;;;;;;;6.43;5.93;;;30.10;28.80;;;;;;10418817;28;20221;-69
2023/09/08 14:27:10;;;;;;;6.57;6.17;;;30.10;28.60;;;;;;10418841;28;20230;-68
2023/09/08 14:32:14;;;;;;;7.60;6.10;;;30.10;28.30;;;;;;10418524;28;20228;-68
2023/09/08 14:37:17;;;;;;;6.13;5.67;;;30.10;28.30;;;;;;10421400;28;20905;-68
2023/09/08 14:42:22;;;;;;;5.77;5.37;;;30.10;28.20;;;;;;10418729;28;20233;-68
2023/09/08 14:47:25;;;;;;;6.40;5.90;;;30.10;28.40;;;;;;10421755;28;20236;-68
2023/09/08 14:52:28;;;;;;;6.23;5.70;;;30.20;28.40;;;;;;10416232;28;20229;-69
2023/09/08 14:57:33;;;;;;;6.10;5.60;;;30.30;28.50;;;;;;10413488;28;20237;-69
2023/09/08 15:02:36;;;;;;;5.93;5.43;;;30.30;28.00;;;;;;10420016;28;20312;-69
2023/09/08 15:07:40;;;;;;;6.03;5.53;;;30.30;28.20;;;;;;10429426;28;20221;-69
2023/09/08 15:12:44;;;;;;;5.93;5.40;;;30.30;27.80;;;;;;10408760;28;20300;-69
2023/09/08 15:17:47;;;;;;;7.03;5.73;;;30.30;27.60;;;;;;10417404;28;20239;-70
2023/09/08 15:22:51;;;;;;;6.00;5.50;;;30.30;27.80;;;;;;10407911;28;20343;-70
2023/09/08 15:27:56;;;;;;;5.57;5.17;;;30.30;27.70;;;;;;10418578;28;20266;-69
2023/09/08 15:33:04;;;;;;;5.60;5.20;;;30.30;27.50;;;;;;10427755;28;20220;-69
2023/09/08 15:38:08;;;;;;;6.03;5.53;;;30.30;27.30;;;;;;10426150;28;20225;-69
2023/09/08 15:43:12;;;;;;;5.70;4.87;;;30.30;27.50;;;;;;10411514;28;20230;-69
2023/09/08 15:48:15;;;;;;;6.10;5.50;;;30.40;27.40;;;;;;10380356;28;20226;-69
2023/09/08 15:53:18;;;;;;;5.53;5.03;;;30.40;27.30;;;;;;10378793;28;20587;-69
2023/09/08 15:58:23;;;;;;;5.47;5.07;;;30.30;27.10;;;;;;10386024;28;20317;-68
2023/09/08 16:03:26;;;;;;;5.50;5.10;;;30.40;27.10;;;;;;10375968;28;20313;-69
2023/09/08 16:08:30;;;;;;;5.40;5.00;;;30.40;27.30;;;;;;10375992;28;20619;-69
2023/09/08 16:13:34;;;;;;;5.40;5.00;;;30.30;27.20;;;;;;10368288;28;20234;-70
2023/09/08 16:18:38;;;;;;;5.43;5.03;;;30.40;27.00;;;;;;10373183;28;20240;-69
2023/09/08 16:23:41;;;;;;;8.13;5.10;;;30.40;27.00;;;;;;10374605;28;20229;-69
2023/09/08 16:28:46;;;;;;;5.07;4.77;;;30.40;27.00;;;;;;10374353;28;20226;-69
2023/09/08 16:33:49;;;;;;;5.57;5.07;;;30.40;26.90;;;;;;10382888;28;20569;-69
2023/09/08 16:38:52;;;;;;;5.37;4.97;;;30.30;27.00;;;;;;10379335;28;20247;-69
2023/09/08 16:43:56;;;;;;;5.90;5.40;;;30.30;27.00;;;;;;10367580;28;20589;-69
2023/09/08 16:48:59;;;;;;;7.87;5.60;;;30.30;26.90;;;;;;10374880;28;20626;-69
2023/09/08 16:54:03;;;;;;;7.27;6.40;;;30.30;27.50;;;;;;10373638;28;20229;-69
2023/09/08 16:59:07;;;;;;;6.93;6.33;;;30.20;27.60;;;;;;10383206;28;20320;-69
2023/09/08 17:04:10;;;;;;;8.00;7.30;;;30.10;27.50;;;;;;10376285;28;20235;-69
2023/09/08 17:09:15;;;;;;;7.27;6.57;;;29.90;27.40;;;;;;10376359;28;20230;-69
2023/09/08 17:14:19;;;;;;;7.00;6.40;;;29.80;27.40;;;;;;10380561;28;20230;-68
2023/09/08 17:19:22;;;;;;;6.67;6.17;;;29.60;27.50;;;;;;10375234;28;20241;-69
2023/09/08 17:24:25;;;;;;;6.97;6.10;;;29.40;27.50;;;;;;10376531;28;20234;-69
2023/09/08 17:29:31;;;;;;;6.40;5.90;;;29.30;27.90;;;;;;10372688;28;20230;-69
2023/09/08 17:34:38;;;;;;;6.87;6.27;;;29.20;28.10;;;;;;10378828;28;20226;-69
2023/09/08 17:39:41;;;;;;;7.57;6.87;;;29.10;28.10;;;;;;10376468;28;20728;-69
2023/09/08 17:44:45;;;;;;;7.00;6.40;;;29.00;28.30;;;;;;10381460;28;20317;-69
2023/09/08 17:49:49;;;;;;;6.47;5.97;;;28.90;28.60;;;;;;10376487;28;20304;-69
2023/09/08 17:54:52;;;;;;;6.77;6.10;;;28.70;28.40;;;;;;10377562;28;20241;-69
2023/09/08 17:59:57;;;;;;;7.07;5.77;;;28.60;28.60;;;;;;10373394;28;20756;-69
2023/09/08 18:05:02;;;;;;;6.33;5.83;;;28.40;28.90;;;;;;10366830;28;20225;-69
2023/09/08 18:10:06;;;;;;;6.80;6.10;;;28.30;28.80;;;;;;10374414;28;20248;-69
2023/09/08 18:15:11;;;;;;;6.27;5.70;;;28.10;28.90;;;;;;10378637;28;20721;-69
2023/09/08 18:20:15;;;;;;;7.03;6.43;;;27.90;29.20;;;;;;10369006;28;20619;-69
2023/09/08 18:25:21;;;;;;;6.90;6.30;;;27.80;29.30;;;;;;10403702;28;20312;-68
2023/09/08 18:30:26;;;;;;;6.13;5.63;;;27.70;29.50;;;;;;10404422;28;20226;-69
2023/09/08 18:35:31;;;;;;;7.43;6.83;;;27.50;29.70;;;;;;10405593;28;20339;-68
2023/09/08 18:40:35;;;;;;;7.03;6.33;;;27.40;29.70;;;;;;10405470;28;20288;-69
2023/09/08 18:45:40;;;;;;;6.93;6.33;;;27.30;29.90;;;;;;10405064;28;20233;-69
2023/09/08 18:50:43;;;;;;;6.27;5.73;;;27.20;29.80;;;;;;10405028;28;20608;-68
2023/09/08 18:55:46;;;;;;;6.90;6.20;;;27.10;29.80;;;;;;10404415;28;20225;-69
2023/09/08 19:00:51;;;;;;;7.13;6.53;;;27.00;29.70;;;;;;10405185;28;20762;-69
2023/09/08 19:05:54;;;;;;;6.80;6.27;;;26.90;29.80;;;;;;10404792;28;20218;-69
2023/09/08 19:10:57;;;;;;;7.23;6.17;;;26.80;29.60;;;;;;10412198;28;20654;-68
2023/09/08 19:16:02;;;;;;;7.00;6.40;;;26.70;29.90;;;;;;10412959;28;20241;-69
2023/09/08 19:21:05;;;;;;;6.60;6.00;;;26.60;30.10;;;;;;10412550;28;20740;-69
2023/09/08 19:26:08;;;;;;;6.53;6.03;;;26.40;29.90;;;;;;10412724;28;20226;-68
2023/09/08 19:31:13;;;;;;;7.40;6.70;;;26.40;30.00;;;;;;10412211;28;20260;-68
2023/09/08 19:36:16;;;;;;;7.40;6.70;;;26.30;30.40;;;;;;10412436;28;20232;-69
2023/09/08 19:41:23;;;;;;;5.90;5.50;;;26.10;30.00;;;;;;10412411;28;20229;-69
2023/09/08 19:46:28;;;;;;;6.27;5.83;;;26.00;30.00;;;;;;10411897;28;20230;-69
2023/09/08 19:51:32;;;;;;;7.13;5.70;;;25.90;30.30;;;;;;10411587;28;20539;-69
2023/09/08 19:56:36;;;;;;;6.90;6.30;;;25.70;30.40;;;;;;10411592;28;20603;-69
2023/09/08 20:01:41;;;;;;;6.60;6.10;;;25.60;30.60;;;;;;10410836;28;20317;-68
2023/09/08 20:06:45;;;;;;;7.13;6.43;;;25.50;30.90;;;;;;10411012;28;20226;-69
2023/09/08 20:11:49;;;;;;;6.73;6.23;;;25.40;30.90;;;;;;10410842;28;20264;-68
2023/09/08 20:16:53;;;;;;;6.40;5.97;;;25.30;31.00;;;;;;10410554;28;20255;-68
2023/09/08 20:21:56;;;;;;;7.07;6.57;;;25.20;31.30;;;;;;10409732;28;20233;-69
2023/09/08 20:26:59;;;;;;;6.60;6.07;;;25.10;31.30;;;;;;10410636;28;20225;-68
2023/09/08 20:32:05;;;;;;;6.43;5.93;;;24.90;31.30;;;;;;10393865;28;20233;-68
2023/09/08 20:37:09;;;;;;;6.60;6.10;;;24.90;31.70;;;;;;10407631;28;20642;-69
2023/09/08 20:42:12;;;;;;;7.17;6.57;;;24.80;31.40;;;;;;10403748;28;20272;-68
2023/09/08 20:47:17;;;;;;;7.20;6.60;;;24.70;31.40;;;;;;10404835;28;20232;-69
2023/09/08 20:52:20;;;;;;;7.10;6.47;;;24.60;31.60;;;;;;10406173;28;20233;-68
2023/09/08 20:57:24;;;;;;;6.30;5.77;;;24.50;31.30;;;;;;10406746;28;20233;-69
2023/09/08 21:02:29;;;;;;;6.73;6.23;;;24.40;31.30;;;;;;10406567;28;20589;-69
2023/09/08 21:07:32;;;;;;;6.63;6.13;;;24.30;31.50;;;;;;10406351;28;20746;-69
2023/09/08 21:12:35;;;;;;;7.70;6.90;;;24.20;31.30;;;;;;10406278;28;20234;-67
2023/09/08 21:17:40;;;;;;;9.27;8.47;;;24.10;31.50;;;;;;10405792;28;20233;-69
2023/09/08 21:22:43;;;;;;;8.90;8.20;;;23.90;31.90;;;;;;10405633;28;20241;-69
2023/09/08 21:27:46;;;;;;;8.77;8.07;;;23.60;31.70;;;;;;10405463;28;20272;-68
2023/09/08 21:32:51;;;;;;;9.33;8.20;;;23.50;32.20;;;;;;10405080;28;20309;-69
2023/09/08 21:37:54;;;;;;;8.67;7.80;;;23.40;32.60;;;;;;10404958;28;20318;-69
2023/09/08 21:42:58;;;;;;;9.30;8.43;;;23.30;32.30;;;;;;10404812;28;20714;-69
2023/09/08 21:48:03;;;;;;;8.93;8.03;;;23.20;32.30;;;;;;10406049;28;20809;-69
2023/09/08 21:53:06;;;;;;;9.00;8.30;;;23.10;32.70;;;;;;10406190;28;20225;-69
2023/09/08 21:58:09;;;;;;;8.13;7.43;;;23.00;32.60;;;;;;10407100;28;20266;-68
2023/09/08 22:03:14;;;;;;;9.00;8.30;;;22.80;32.70;;;;;;10406953;28;20235;-69
2023/09/08 22:08:17;;;;;;;9.10;8.30;;;22.60;33.30;;;;;;10406624;28;20292;-69
2023/09/08 22:13:20;;;;;;;8.40;7.80;;;22.50;33.10;;;;;;10406400;28;20627;-69
2023/09/08 22:18:25;;;;;;;10.17;9.27;;;22.50;33.30;;;;;;10406652;28;20244;-69
2023/09/08 22:23:28;;;;;;;9.77;8.87;;;22.40;33.60;;;;;;10406119;28;20636;-67
2023/09/08 22:28:31;;;;;;;8.27;7.67;;;22.30;33.10;;;;;;10406243;28;20282;-69
2023/09/08 22:33:36;;;;;;;9.30;8.60;;;22.20;33.10;;;;;;10406069;28;20287;-67
2023/09/08 22:38:40;;;;;;;8.83;8.13;;;22.10;33.60;;;;;;10405380;28;20287;-68
2023/09/08 22:43:43;;;;;;;9.17;8.47;;;22.00;33.40;;;;;;10403131;28;20991;-68
2023/09/08 22:48:48;;;;;;;9.30;8.13;;;21.90;33.30;;;;;;10403751;28;20729;-69
2023/09/08 22:53:52;;;;;;;9.73;9.00;;;21.80;33.70;;;;;;10402962;28;20241;-68
2023/09/08 22:58:56;;;;;;;10.83;9.93;;;21.60;33.60;;;;;;10403184;28;20233;-68
2023/09/08 23:04:01;;;;;;;9.83;8.93;;;21.50;33.90;;;;;;10403678;28;20233;-69
2023/09/08 23:09:04;;;;;;;9.10;8.40;;;21.50;34.50;;;;;;10402892;28;20230;-68
2023/09/08 23:14:07;;;;;;;8.63;7.93;;;21.40;34.30;;;;;;10403049;28;20249;-69
2023/09/08 23:19:12;;;;;;;9.13;8.43;;;21.40;34.30;;;;;;10402642;28;20246;-68
2023/09/08 23:24:15;;;;;;;10.43;9.53;;;21.40;34.50;;;;;;10402865;28;20291;-68
2023/09/08 23:29:18;;;;;;;9.07;8.33;;;21.20;33.90;;;;;;10402644;28;20257;-68
2023/09/08 23:34:23;;;;;;;10.20;9.40;;;21.10;34.00;;;;;;10402695;28;20236;-69
2023/09/08 23:39:26;;;;;;;9.77;8.97;;;21.00;34.60;;;;;;10402467;28;20276;-69
2023/09/08 23:44:29;;;;;;;9.10;8.40;;;20.80;34.50;;;;;;10402097;28;20639;-69
2023/09/08 23:49:34;;;;;;;9.40;8.70;;;20.80;34.80;;;;;;10402264;28;20253;-69
2023/09/08 23:54:37;;;;;;;8.87;8.17;;;20.70;35.30;;;;;;10403564;28;20312;-68
2023/09/08 23:59:40;;;;;;;9.97;9.17;;;20.70;34.70;;;;;;10409934;28;20260;-69
